sensor_id;sensor_type;location;lat;lon;timestamp;P1;durP1;ratioP1;P2;durP2;ratioP2
928;SDS011;451;47.988;7.842;2023-12-04T00:00:22;1.00;;;1.00;;
928;SDS011;451;47.988;7.842;2023-12-04T00:09:25;0.70;;;0.70;;
928;SDS011;451;47.988;7.842;2023-12-04T00:18:30;0.60;;;0.60;;
928;SDS011;451;47.988;7.842;2023-12-04T00:27:33;0.60;;;0.60;;
928;SDS011;451;47.988;7.842;2023-12-04T00:36:38;0.60;;;0.60;;
928;SDS011;451;47.988;7.842;2023-12-04T00:45:41;0.60;;;0.60;;
928;SDS011;451;47.988;7.842;2023-12-04T00:54:45;0.60;;;0.60;;
928;SDS011;451;47.988;7.842;2023-12-04T01:03:48;0.60;;;0.60;;
928;SDS011;451;47.988;7.842;2023-12-04T01:12:53;0.70;;;0.70;;
928;SDS011;451;47.988;7.842;2023-12-04T01:21:56;0.97;;;0.97;;
928;SDS011;451;47.988;7.842;2023-12-04T01:31:00;1.50;;;0.80;;
928;SDS011;451;47.988;7.842;2023-12-04T01:40:04;0.70;;;0.70;;
928;SDS011;451;47.988;7.842;2023-12-04T01:49:10;1.33;;;1.00;;
928;SDS011;451;47.988;7.842;2023-12-04T01:58:13;1.20;;;1.20;;
928;SDS011;451;47.988;7.842;2023-12-04T02:07:18;0.90;;;0.90;;
928;SDS011;451;47.988;7.842;2023-12-04T02:16:21;0.80;;;0.80;;
928;SDS011;451;47.988;7.842;2023-12-04T02:25:30;1.27;;;1.03;;
928;SDS011;451;47.988;7.842;2023-12-04T02:34:34;0.90;;;0.90;;
928;SDS011;451;47.988;7.842;2023-12-04T02:43:40;0.80;;;0.80;;
928;SDS011;451;47.988;7.842;2023-12-04T02:52:43;1.77;;;1.67;;
928;SDS011;451;47.988;7.842;2023-12-04T03:01:47;4.13;;;1.37;;
928;SDS011;451;47.988;7.842;2023-12-04T03:10:50;1.17;;;1.17;;
928;SDS011;451;47.988;7.842;2023-12-04T03:19:55;0.83;;;0.83;;
928;SDS011;451;47.988;7.842;2023-12-04T03:28:58;1.57;;;1.47;;
928;SDS011;451;47.988;7.842;2023-12-04T03:38:02;1.10;;;1.10;;
928;SDS011;451;47.988;7.842;2023-12-04T03:47:05;1.47;;;1.37;;
928;SDS011;451;47.988;7.842;2023-12-04T03:56:10;1.50;;;1.40;;
928;SDS011;451;47.988;7.842;2023-12-04T04:05:13;0.60;;;0.60;;
928;SDS011;451;47.988;7.842;2023-12-04T04:14:18;0.80;;;0.80;;
928;SDS011;451;47.988;7.842;2023-12-04T04:23:21;1.10;;;1.10;;
928;SDS011;451;47.988;7.842;2023-12-04T04:32:25;3.80;;;1.37;;
928;SDS011;451;47.988;7.842;2023-12-04T04:41:28;0.60;;;0.60;;
928;SDS011;451;47.988;7.842;2023-12-04T04:50:34;1.00;;;1.00;;
928;SDS011;451;47.988;7.842;2023-12-04T04:59:37;0.80;;;0.80;;
928;SDS011;451;47.988;7.842;2023-12-04T05:08:41;2.20;;;1.57;;
928;SDS011;451;47.988;7.842;2023-12-04T05:17:44;1.57;;;1.43;;
928;SDS011;451;47.988;7.842;2023-12-04T05:26:48;1.93;;;1.83;;
928;SDS011;451;47.988;7.842;2023-12-04T05:35:52;1.50;;;1.50;;
928;SDS011;451;47.988;7.842;2023-12-04T05:44:57;0.80;;;0.80;;
928;SDS011;451;47.988;7.842;2023-12-04T05:54:00;1.30;;;1.27;;
928;SDS011;451;47.988;7.842;2023-12-04T06:03:04;8.90;;;2.83;;
928;SDS011;451;47.988;7.842;2023-12-04T06:12:07;1.03;;;1.03;;
928;SDS011;451;47.988;7.842;2023-12-04T06:21:12;3.43;;;1.60;;
928;SDS011;451;47.988;7.842;2023-12-04T06:30:16;1.27;;;1.27;;
928;SDS011;451;47.988;7.842;2023-12-04T06:39:21;2.80;;;2.60;;
928;SDS011;451;47.988;7.842;2023-12-04T06:48:25;2.23;;;2.13;;
928;SDS011;451;47.988;7.842;2023-12-04T06:57:30;1.57;;;1.47;;
928;SDS011;451;47.988;7.842;2023-12-04T07:06:33;1.83;;;1.73;;
928;SDS011;451;47.988;7.842;2023-12-04T07:15:38;4.10;;;2.70;;
928;SDS011;451;47.988;7.842;2023-12-04T07:24:41;1.60;;;1.50;;
928;SDS011;451;47.988;7.842;2023-12-04T07:33:45;1.30;;;1.20;;
928;SDS011;451;47.988;7.842;2023-12-04T07:42:48;2.73;;;1.53;;
928;SDS011;451;47.988;7.842;2023-12-04T07:51:53;1.53;;;1.43;;
928;SDS011;451;47.988;7.842;2023-12-04T08:00:56;3.60;;;1.30;;
928;SDS011;451;47.988;7.842;2023-12-04T08:10:01;3.60;;;3.37;;
928;SDS011;451;47.988;7.842;2023-12-04T08:19:04;6.63;;;3.37;;
928;SDS011;451;47.988;7.842;2023-12-04T08:28:09;3.23;;;1.47;;
928;SDS011;451;47.988;7.842;2023-12-04T08:37:12;2.30;;;2.03;;
928;SDS011;451;47.988;7.842;2023-12-04T08:46:16;2.07;;;1.97;;
928;SDS011;451;47.988;7.842;2023-12-04T08:55:19;1.00;;;1.00;;
928;SDS011;451;47.988;7.842;2023-12-04T09:04:24;1.47;;;1.33;;
928;SDS011;451;47.988;7.842;2023-12-04T09:13:27;1.17;;;1.17;;
928;SDS011;451;47.988;7.842;2023-12-04T09:22:32;1.17;;;1.17;;
928;SDS011;451;47.988;7.842;2023-12-04T09:31:36;5.77;;;4.17;;
928;SDS011;451;47.988;7.842;2023-12-04T09:40:41;3.17;;;1.83;;
928;SDS011;451;47.988;7.842;2023-12-04T09:49:44;3.20;;;2.20;;
928;SDS011;451;47.988;7.842;2023-12-04T09:58:50;1.57;;;1.57;;
928;SDS011;451;47.988;7.842;2023-12-04T10:07:55;19.07;;;3.97;;
928;SDS011;451;47.988;7.842;2023-12-04T10:17:00;8.83;;;3.17;;
928;SDS011;451;47.988;7.842;2023-12-04T10:26:16;3.87;;;2.17;;
928;SDS011;451;47.988;7.842;2023-12-04T10:35:21;2.83;;;2.17;;
928;SDS011;451;47.988;7.842;2023-12-04T10:44:25;2.47;;;2.27;;
928;SDS011;451;47.988;7.842;2023-12-04T10:53:29;1.63;;;1.10;;
928;SDS011;451;47.988;7.842;2023-12-04T11:02:33;7.40;;;1.53;;
928;SDS011;451;47.988;7.842;2023-12-04T11:11:39;9.60;;;3.57;;
928;SDS011;451;47.988;7.842;2023-12-04T11:20:46;1.27;;;1.27;;
928;SDS011;451;47.988;7.842;2023-12-04T11:29:55;2.97;;;2.87;;
928;SDS011;451;47.988;7.842;2023-12-04T11:38:58;1.00;;;1.00;;
928;SDS011;451;47.988;7.842;2023-12-04T11:48:06;0.73;;;0.73;;
928;SDS011;451;47.988;7.842;2023-12-04T11:57:20;1.40;;;1.30;;
928;SDS011;451;47.988;7.842;2023-12-04T12:06:27;1.00;;;1.00;;
928;SDS011;451;47.988;7.842;2023-12-04T12:15:32;1.43;;;1.07;;
928;SDS011;451;47.988;7.842;2023-12-04T12:24:37;1.90;;;1.80;;
928;SDS011;451;47.988;7.842;2023-12-04T12:33:40;3.83;;;2.40;;
928;SDS011;451;47.988;7.842;2023-12-04T12:42:44;4.40;;;3.73;;
928;SDS011;451;47.988;7.842;2023-12-04T12:51:48;4.60;;;4.17;;
928;SDS011;451;47.988;7.842;2023-12-04T13:00:52;3.90;;;3.70;;
928;SDS011;451;47.988;7.842;2023-12-04T13:09:56;2.67;;;2.00;;
928;SDS011;451;47.988;7.842;2023-12-04T13:19:03;3.00;;;2.80;;
928;SDS011;451;47.988;7.842;2023-12-04T13:28:06;1.97;;;1.87;;
928;SDS011;451;47.988;7.842;2023-12-04T13:37:10;1.00;;;1.00;;
928;SDS011;451;47.988;7.842;2023-12-04T13:46:13;1.10;;;1.10;;
928;SDS011;451;47.988;7.842;2023-12-04T13:55:18;1.50;;;1.40;;
928;SDS011;451;47.988;7.842;2023-12-04T14:04:22;1.40;;;1.40;;
928;SDS011;451;47.988;7.842;2023-12-04T14:13:28;1.67;;;1.57;;
928;SDS011;451;47.988;7.842;2023-12-04T14:22:31;0.87;;;0.87;;
928;SDS011;451;47.988;7.842;2023-12-04T14:31:36;2.93;;;2.77;;
928;SDS011;451;47.988;7.842;2023-12-04T14:40:39;4.90;;;4.00;;
928;SDS011;451;47.988;7.842;2023-12-04T14:49:44;3.80;;;3.60;;
928;SDS011;451;47.988;7.842;2023-12-04T14:58:47;2.70;;;1.33;;
928;SDS011;451;47.988;7.842;2023-12-04T15:08:26;1.30;;;1.30;;
928;SDS011;451;47.988;7.842;2023-12-04T15:18:01;0.80;;;0.80;;
928;SDS011;451;47.988;7.842;2023-12-04T15:27:20;0.80;;;0.80;;
928;SDS011;451;47.988;7.842;2023-12-04T15:36:23;1.73;;;1.63;;
928;SDS011;451;47.988;7.842;2023-12-04T15:45:27;2.13;;;2.03;;
928;SDS011;451;47.988;7.842;2023-12-04T15:54:30;0.93;;;0.90;;
928;SDS011;451;47.988;7.842;2023-12-04T16:03:35;3.63;;;1.67;;
928;SDS011;451;47.988;7.842;2023-12-04T16:12:38;2.77;;;1.10;;
928;SDS011;451;47.988;7.842;2023-12-04T16:21:43;1.03;;;0.93;;
928;SDS011;451;47.988;7.842;2023-12-04T16:30:46;2.30;;;1.70;;
928;SDS011;451;47.988;7.842;2023-12-04T16:39:50;0.97;;;0.97;;
928;SDS011;451;47.988;7.842;2023-12-04T16:48:53;1.07;;;1.07;;
928;SDS011;451;47.988;7.842;2023-12-04T16:57:58;2.43;;;2.00;;
928;SDS011;451;47.988;7.842;2023-12-04T17:07:05;1.40;;;1.30;;
928;SDS011;451;47.988;7.842;2023-12-04T17:16:10;1.60;;;1.50;;
928;SDS011;451;47.988;7.842;2023-12-04T17:25:13;1.40;;;1.30;;
928;SDS011;451;47.988;7.842;2023-12-04T17:34:17;3.03;;;1.40;;
928;SDS011;451;47.988;7.842;2023-12-04T17:43:20;2.53;;;1.73;;
928;SDS011;451;47.988;7.842;2023-12-04T17:52:25;2.87;;;2.77;;
928;SDS011;451;47.988;7.842;2023-12-04T18:01:28;3.77;;;2.30;;
928;SDS011;451;47.988;7.842;2023-12-04T18:10:33;5.77;;;3.53;;
928;SDS011;451;47.988;7.842;2023-12-04T18:19:36;4.83;;;4.50;;
928;SDS011;451;47.988;7.842;2023-12-04T18:28:41;3.77;;;3.57;;
928;SDS011;451;47.988;7.842;2023-12-04T18:37:46;3.73;;;2.80;;
928;SDS011;451;47.988;7.842;2023-12-04T18:46:58;4.30;;;3.77;;
928;SDS011;451;47.988;7.842;2023-12-04T18:56:04;3.00;;;2.70;;
928;SDS011;451;47.988;7.842;2023-12-04T19:05:09;3.90;;;3.40;;
928;SDS011;451;47.988;7.842;2023-12-04T19:14:12;7.87;;;4.37;;
928;SDS011;451;47.988;7.842;2023-12-04T19:23:17;4.60;;;3.77;;
928;SDS011;451;47.988;7.842;2023-12-04T19:32:20;4.73;;;4.30;;
928;SDS011;451;47.988;7.842;2023-12-04T19:41:29;6.07;;;3.73;;
928;SDS011;451;47.988;7.842;2023-12-04T19:50:33;8.17;;;5.70;;
928;SDS011;451;47.988;7.842;2023-12-04T19:59:38;2.53;;;2.10;;
928;SDS011;451;47.988;7.842;2023-12-04T20:08:41;0.80;;;0.80;;
928;SDS011;451;47.988;7.842;2023-12-04T20:17:46;2.10;;;1.90;;
928;SDS011;451;47.988;7.842;2023-12-04T20:26:49;1.17;;;1.07;;
928;SDS011;451;47.988;7.842;2023-12-04T20:35:54;1.83;;;0.60;;
928;SDS011;451;47.988;7.842;2023-12-04T20:44:58;0.90;;;0.90;;
928;SDS011;451;47.988;7.842;2023-12-04T20:54:03;0.60;;;0.60;;
928;SDS011;451;47.988;7.842;2023-12-04T21:03:06;1.00;;;0.90;;
928;SDS011;451;47.988;7.842;2023-12-04T21:12:10;1.37;;;1.27;;
928;SDS011;451;47.988;7.842;2023-12-04T21:21:15;1.00;;;0.93;;
928;SDS011;451;47.988;7.842;2023-12-04T21:30:21;0.70;;;0.70;;
928;SDS011;451;47.988;7.842;2023-12-04T21:39:24;0.70;;;0.70;;
928;SDS011;451;47.988;7.842;2023-12-04T21:48:28;0.97;;;0.97;;
928;SDS011;451;47.988;7.842;2023-12-04T21:57:31;0.77;;;0.77;;
928;SDS011;451;47.988;7.842;2023-12-04T22:06:35;0.47;;;0.47;;
928;SDS011;451;47.988;7.842;2023-12-04T22:15:38;0.50;;;0.50;;
928;SDS011;451;47.988;7.842;2023-12-04T22:24:43;0.77;;;0.77;;
928;SDS011;451;47.988;7.842;2023-12-04T22:33:46;0.50;;;0.50;;
928;SDS011;451;47.988;7.842;2023-12-04T22:42:50;0.50;;;0.50;;
928;SDS011;451;47.988;7.842;2023-12-04T22:51:53;0.50;;;0.50;;
928;SDS011;451;47.988;7.842;2023-12-04T23:00:58;0.40;;;0.40;;
928;SDS011;451;47.988;7.842;2023-12-04T23:10:01;0.50;;;0.50;;
928;SDS011;451;47.988;7.842;2023-12-04T23:19:08;0.60;;;0.60;;
928;SDS011;451;47.988;7.842;2023-12-04T23:28:12;0.73;;;0.73;;
928;SDS011;451;47.988;7.842;2023-12-04T23:37:16;0.70;;;0.70;;
928;SDS011;451;47.988;7.842;2023-12-04T23:46:19;2.00;;;0.90;;
928;SDS011;451;47.988;7.842;2023-12-04T23:55:23;0.80;;;0.70;;
